sensor_id;sensor_type;location;lat;lon;timestamp;P1;durP1;ratioP1;P2;durP2;ratioP2
12689;SDS011;6409;56.294;14.480;2023-04-03T00:00:11;1.00;;;1.00;;
12689;SDS011;6409;56.294;14.480;2023-04-03T00:02:38;1.07;;;1.07;;
12689;SDS011;6409;56.294;14.480;2023-04-03T00:05:06;1.17;;;1.17;;
12689;SDS011;6409;56.294;14.480;2023-04-03T00:07:33;0.90;;;0.90;;
12689;SDS011;6409;56.294;14.480;2023-04-03T00:10:00;1.50;;;1.40;;
12689;SDS011;6409;56.294;14.480;2023-04-03T00:12:27;1.00;;;1.00;;
12689;SDS011;6409;56.294;14.480;2023-04-03T00:14:54;1.00;;;1.00;;
12689;SDS011;6409;56.294;14.480;2023-04-03T00:17:23;1.00;;;1.00;;
12689;SDS011;6409;56.294;14.480;2023-04-03T00:19:50;1.00;;;1.00;;
12689;SDS011;6409;56.294;14.480;2023-04-03T00:22:17;1.50;;;1.10;;
12689;SDS011;6409;56.294;14.480;2023-04-03T00:24:44;0.90;;;0.90;;
12689;SDS011;6409;56.294;14.480;2023-04-03T00:27:10;1.20;;;1.20;;
12689;SDS011;6409;56.294;14.480;2023-04-03T00:29:37;3.07;;;1.47;;
12689;SDS011;6409;56.294;14.480;2023-04-03T00:32:04;1.00;;;1.00;;
12689;SDS011;6409;56.294;14.480;2023-04-03T00:34:33;0.90;;;0.90;;
12689;SDS011;6409;56.294;14.480;2023-04-03T00:37:00;0.90;;;0.90;;
12689;SDS011;6409;56.294;14.480;2023-04-03T00:39:27;1.00;;;0.90;;
12689;SDS011;6409;56.294;14.480;2023-04-03T00:41:54;0.90;;;0.90;;
12689;SDS011;6409;56.294;14.480;2023-04-03T00:44:21;0.90;;;0.90;;
12689;SDS011;6409;56.294;14.480;2023-04-03T00:47:10;1.00;;;1.00;;
12689;SDS011;6409;56.294;14.480;2023-04-03T00:49:39;1.00;;;1.00;;
12689;SDS011;6409;56.294;14.480;2023-04-03T00:52:07;1.10;;;1.10;;
12689;SDS011;6409;56.294;14.480;2023-04-03T00:54:37;0.90;;;0.90;;
12689;SDS011;6409;56.294;14.480;2023-04-03T00:57:05;1.00;;;1.00;;
12689;SDS011;6409;56.294;14.480;2023-04-03T00:59:33;0.87;;;0.87;;
12689;SDS011;6409;56.294;14.480;2023-04-03T01:02:02;0.80;;;0.80;;
12689;SDS011;6409;56.294;14.480;2023-04-03T01:04:30;1.33;;;1.07;;
12689;SDS011;6409;56.294;14.480;2023-04-03T01:07:00;1.23;;;1.10;;
12689;SDS011;6409;56.294;14.480;2023-04-03T01:09:29;0.80;;;0.80;;
12689;SDS011;6409;56.294;14.480;2023-04-03T01:14:41;1.00;;;1.00;;
12689;SDS011;6409;56.294;14.480;2023-04-03T01:17:23;0.80;;;0.80;;
12689;SDS011;6409;56.294;14.480;2023-04-03T01:19:58;0.90;;;0.90;;
12689;SDS011;6409;56.294;14.480;2023-04-03T01:22:45;1.70;;;1.00;;
12689;SDS011;6409;56.294;14.480;2023-04-03T01:25:18;1.07;;;0.73;;
12689;SDS011;6409;56.294;14.480;2023-04-03T01:27:45;0.70;;;0.70;;
12689;SDS011;6409;56.294;14.480;2023-04-03T01:30:12;1.00;;;1.00;;
12689;SDS011;6409;56.294;14.480;2023-04-03T01:32:42;0.80;;;0.80;;
12689;SDS011;6409;56.294;14.480;2023-04-03T01:35:10;0.70;;;0.70;;
12689;SDS011;6409;56.294;14.480;2023-04-03T01:37:37;0.80;;;0.80;;
12689;SDS011;6409;56.294;14.480;2023-04-03T01:40:04;0.70;;;0.70;;
12689;SDS011;6409;56.294;14.480;2023-04-03T01:42:32;0.77;;;0.77;;
12689;SDS011;6409;56.294;14.480;2023-04-03T01:44:59;0.70;;;0.70;;
12689;SDS011;6409;56.294;14.480;2023-04-03T01:47:26;0.77;;;0.77;;
12689;SDS011;6409;56.294;14.480;2023-04-03T01:49:54;0.63;;;0.63;;
12689;SDS011;6409;56.294;14.480;2023-04-03T01:52:21;1.33;;;0.73;;
12689;SDS011;6409;56.294;14.480;2023-04-03T01:54:48;0.80;;;0.80;;
12689;SDS011;6409;56.294;14.480;2023-04-03T01:57:15;0.70;;;0.70;;
12689;SDS011;6409;56.294;14.480;2023-04-03T01:59:42;0.70;;;0.70;;
12689;SDS011;6409;56.294;14.480;2023-04-03T02:02:09;0.80;;;0.80;;
12689;SDS011;6409;56.294;14.480;2023-04-03T02:04:37;0.90;;;0.90;;
12689;SDS011;6409;56.294;14.480;2023-04-03T02:07:06;0.60;;;0.60;;
12689;SDS011;6409;56.294;14.480;2023-04-03T02:09:33;0.70;;;0.70;;
12689;SDS011;6409;56.294;14.480;2023-04-03T02:15:01;0.87;;;0.87;;
12689;SDS011;6409;56.294;14.480;2023-04-03T02:17:28;0.70;;;0.70;;
12689;SDS011;6409;56.294;14.480;2023-04-03T02:19:55;0.70;;;0.70;;
12689;SDS011;6409;56.294;14.480;2023-04-03T02:22:23;0.70;;;0.70;;
12689;SDS011;6409;56.294;14.480;2023-04-03T02:24:50;0.70;;;0.70;;
12689;SDS011;6409;56.294;14.480;2023-04-03T02:27:17;0.73;;;0.73;;
12689;SDS011;6409;56.294;14.480;2023-04-03T02:29:44;0.60;;;0.60;;
12689;SDS011;6409;56.294;14.480;2023-04-03T02:32:11;0.70;;;0.70;;
12689;SDS011;6409;56.294;14.480;2023-04-03T02:34:38;1.10;;;1.00;;
12689;SDS011;6409;56.294;14.480;2023-04-03T02:37:05;0.80;;;0.80;;
12689;SDS011;6409;56.294;14.480;2023-04-03T02:39:34;0.70;;;0.70;;
12689;SDS011;6409;56.294;14.480;2023-04-03T02:42:01;0.70;;;0.70;;
12689;SDS011;6409;56.294;14.480;2023-04-03T02:44:28;0.83;;;0.83;;
12689;SDS011;6409;56.294;14.480;2023-04-03T02:46:55;0.70;;;0.70;;
12689;SDS011;6409;56.294;14.480;2023-04-03T02:49:22;0.70;;;0.70;;
12689;SDS011;6409;56.294;14.480;2023-04-03T02:51:49;0.60;;;0.60;;
12689;SDS011;6409;56.294;14.480;2023-04-03T02:54:17;0.70;;;0.70;;
12689;SDS011;6409;56.294;14.480;2023-04-03T02:56:45;0.70;;;0.70;;
12689;SDS011;6409;56.294;14.480;2023-04-03T02:59:12;0.70;;;0.70;;
12689;SDS011;6409;56.294;14.480;2023-04-03T03:01:39;0.70;;;0.70;;
12689;SDS011;6409;56.294;14.480;2023-04-03T03:04:06;0.60;;;0.60;;
12689;SDS011;6409;56.294;14.480;2023-04-03T03:06:33;0.93;;;0.93;;
12689;SDS011;6409;56.294;14.480;2023-04-03T03:09:00;0.63;;;0.63;;
12689;SDS011;6409;56.294;14.480;2023-04-03T03:11:28;0.70;;;0.70;;
12689;SDS011;6409;56.294;14.480;2023-04-03T03:13:57;0.80;;;0.80;;
12689;SDS011;6409;56.294;14.480;2023-04-03T03:16:24;0.80;;;0.80;;
12689;SDS011;6409;56.294;14.480;2023-04-03T03:18:51;0.70;;;0.70;;
12689;SDS011;6409;56.294;14.480;2023-04-03T03:21:18;0.60;;;0.60;;
12689;SDS011;6409;56.294;14.480;2023-04-03T03:23:45;1.30;;;0.80;;
12689;SDS011;6409;56.294;14.480;2023-04-03T03:26:12;1.07;;;1.07;;
12689;SDS011;6409;56.294;14.480;2023-04-03T03:28:39;0.70;;;0.70;;
12689;SDS011;6409;56.294;14.480;2023-04-03T03:31:08;0.80;;;0.80;;
12689;SDS011;6409;56.294;14.480;2023-04-03T03:33:37;0.67;;;0.67;;
12689;SDS011;6409;56.294;14.480;2023-04-03T03:36:04;0.93;;;0.90;;
12689;SDS011;6409;56.294;14.480;2023-04-03T03:38:31;1.23;;;0.70;;
12689;SDS011;6409;56.294;14.480;2023-04-03T03:40:58;0.67;;;0.67;;
12689;SDS011;6409;56.294;14.480;2023-04-03T03:43:25;0.63;;;0.63;;
12689;SDS011;6409;56.294;14.480;2023-04-03T03:45:52;0.80;;;0.80;;
12689;SDS011;6409;56.294;14.480;2023-04-03T03:48:21;0.50;;;0.50;;
12689;SDS011;6409;56.294;14.480;2023-04-03T03:50:48;0.67;;;0.63;;
12689;SDS011;6409;56.294;14.480;2023-04-03T03:53:15;0.60;;;0.60;;
12689;SDS011;6409;56.294;14.480;2023-04-03T03:55:43;0.60;;;0.60;;
12689;SDS011;6409;56.294;14.480;2023-04-03T03:58:10;0.80;;;0.80;;
12689;SDS011;6409;56.294;14.480;2023-04-03T04:00:37;1.03;;;0.73;;
12689;SDS011;6409;56.294;14.480;2023-04-03T04:03:04;0.53;;;0.53;;
12689;SDS011;6409;56.294;14.480;2023-04-03T04:05:32;0.60;;;0.60;;
12689;SDS011;6409;56.294;14.480;2023-04-03T04:07:59;0.80;;;0.80;;
12689;SDS011;6409;56.294;14.480;2023-04-03T04:10:26;0.70;;;0.70;;
12689;SDS011;6409;56.294;14.480;2023-04-03T04:12:53;0.70;;;0.70;;
12689;SDS011;6409;56.294;14.480;2023-04-03T04:15:20;1.10;;;1.10;;
12689;SDS011;6409;56.294;14.480;2023-04-03T04:17:48;0.93;;;0.93;;
12689;SDS011;6409;56.294;14.480;2023-04-03T04:20:15;0.77;;;0.77;;
12689;SDS011;6409;56.294;14.480;2023-04-03T04:22:43;0.70;;;0.70;;
12689;SDS011;6409;56.294;14.480;2023-04-03T04:25:10;0.80;;;0.80;;
12689;SDS011;6409;56.294;14.480;2023-04-03T04:27:37;0.70;;;0.70;;
12689;SDS011;6409;56.294;14.480;2023-04-03T04:30:05;0.50;;;0.50;;
12689;SDS011;6409;56.294;14.480;2023-04-03T04:32:33;1.40;;;0.80;;
12689;SDS011;6409;56.294;14.480;2023-04-03T04:35:00;1.47;;;1.07;;
12689;SDS011;6409;56.294;14.480;2023-04-03T04:37:27;0.70;;;0.70;;
12689;SDS011;6409;56.294;14.480;2023-04-03T04:39:56;0.70;;;0.70;;
12689;SDS011;6409;56.294;14.480;2023-04-03T04:42:23;0.60;;;0.60;;
12689;SDS011;6409;56.294;14.480;2023-04-03T04:44:50;0.90;;;0.90;;
12689;SDS011;6409;56.294;14.480;2023-04-03T04:47:17;0.70;;;0.70;;
12689;SDS011;6409;56.294;14.480;2023-04-03T04:49:44;0.70;;;0.70;;
12689;SDS011;6409;56.294;14.480;2023-04-03T04:52:12;0.67;;;0.67;;
12689;SDS011;6409;56.294;14.480;2023-04-03T04:54:39;0.77;;;0.77;;
12689;SDS011;6409;56.294;14.480;2023-04-03T04:57:07;0.80;;;0.80;;
12689;SDS011;6409;56.294;14.480;2023-04-03T04:59:35;0.70;;;0.70;;
12689;SDS011;6409;56.294;14.480;2023-04-03T05:02:02;1.00;;;0.83;;
12689;SDS011;6409;56.294;14.480;2023-04-03T05:04:29;0.70;;;0.70;;
12689;SDS011;6409;56.294;14.480;2023-04-03T05:06:56;2.63;;;1.03;;
12689;SDS011;6409;56.294;14.480;2023-04-03T05:09:24;1.00;;;1.00;;
12689;SDS011;6409;56.294;14.480;2023-04-03T05:11:51;0.60;;;0.60;;
12689;SDS011;6409;56.294;14.480;2023-04-03T05:14:19;0.83;;;0.83;;
12689;SDS011;6409;56.294;14.480;2023-04-03T05:16:46;0.80;;;0.80;;
12689;SDS011;6409;56.294;14.480;2023-04-03T05:19:13;0.70;;;0.70;;
12689;SDS011;6409;56.294;14.480;2023-04-03T05:21:40;0.60;;;0.60;;
12689;SDS011;6409;56.294;14.480;2023-04-03T05:24:07;0.70;;;0.70;;
12689;SDS011;6409;56.294;14.480;2023-04-03T05:26:34;0.80;;;0.80;;
12689;SDS011;6409;56.294;14.480;2023-04-03T05:29:01;0.90;;;0.90;;
12689;SDS011;6409;56.294;14.480;2023-04-03T05:31:30;0.60;;;0.60;;
12689;SDS011;6409;56.294;14.480;2023-04-03T05:33:57;0.80;;;0.80;;
12689;SDS011;6409;56.294;14.480;2023-04-03T05:36:24;1.20;;;1.10;;
12689;SDS011;6409;56.294;14.480;2023-04-03T05:38:51;0.70;;;0.70;;
12689;SDS011;6409;56.294;14.480;2023-04-03T05:41:21;0.90;;;0.90;;
12689;SDS011;6409;56.294;14.480;2023-04-03T05:43:48;1.10;;;1.00;;
12689;SDS011;6409;56.294;14.480;2023-04-03T05:46:16;1.27;;;1.27;;
12689;SDS011;6409;56.294;14.480;2023-04-03T05:48:45;1.10;;;1.10;;
12689;SDS011;6409;56.294;14.480;2023-04-03T05:51:14;1.20;;;1.20;;
12689;SDS011;6409;56.294;14.480;2023-04-03T05:53:43;1.00;;;1.00;;
12689;SDS011;6409;56.294;14.480;2023-04-03T05:56:11;1.17;;;1.00;;
12689;SDS011;6409;56.294;14.480;2023-04-03T05:58:38;0.97;;;0.97;;
12689;SDS011;6409;56.294;14.480;2023-04-03T06:01:06;1.40;;;1.17;;
12689;SDS011;6409;56.294;14.480;2023-04-03T06:03:33;1.33;;;1.23;;
12689;SDS011;6409;56.294;14.480;2023-04-03T06:06:03;1.10;;;1.10;;
12689;SDS011;6409;56.294;14.480;2023-04-03T06:08:31;1.20;;;1.20;;
12689;SDS011;6409;56.294;14.480;2023-04-03T06:10:58;1.30;;;1.20;;
12689;SDS011;6409;56.294;14.480;2023-04-03T06:13:27;1.03;;;1.03;;
12689;SDS011;6409;56.294;14.480;2023-04-03T06:15:54;4.23;;;1.20;;
12689;SDS011;6409;56.294;14.480;2023-04-03T06:18:21;1.10;;;1.10;;
12689;SDS011;6409;56.294;14.480;2023-04-03T06:20:49;17.37;;;1.60;;
12689;SDS011;6409;56.294;14.480;2023-04-03T06:23:17;1.20;;;1.20;;
12689;SDS011;6409;56.294;14.480;2023-04-03T06:25:44;1.20;;;1.20;;
12689;SDS011;6409;56.294;14.480;2023-04-03T06:28:12;1.30;;;1.30;;
12689;SDS011;6409;56.294;14.480;2023-04-03T06:30:39;1.17;;;1.17;;
12689;SDS011;6409;56.294;14.480;2023-04-03T06:33:06;1.10;;;1.10;;
12689;SDS011;6409;56.294;14.480;2023-04-03T06:35:33;1.40;;;1.40;;
12689;SDS011;6409;56.294;14.480;2023-04-03T06:38:00;1.20;;;1.20;;
12689;SDS011;6409;56.294;14.480;2023-04-03T06:40:30;1.20;;;1.20;;
12689;SDS011;6409;56.294;14.480;2023-04-03T06:42:57;1.40;;;1.30;;
12689;SDS011;6409;56.294;14.480;2023-04-03T06:45:24;1.30;;;1.30;;
12689;SDS011;6409;56.294;14.480;2023-04-03T06:47:52;1.50;;;1.40;;
12689;SDS011;6409;56.294;14.480;2023-04-03T06:50:19;1.90;;;1.70;;
12689;SDS011;6409;56.294;14.480;2023-04-03T06:52:46;5.13;;;2.90;;
12689;SDS011;6409;56.294;14.480;2023-04-03T06:55:13;1.90;;;1.80;;
12689;SDS011;6409;56.294;14.480;2023-04-03T06:57:42;1.70;;;1.60;;
12689;SDS011;6409;56.294;14.480;2023-04-03T07:00:10;1.50;;;1.50;;
12689;SDS011;6409;56.294;14.480;2023-04-03T07:02:38;1.60;;;1.60;;
12689;SDS011;6409;56.294;14.480;2023-04-03T07:05:06;1.87;;;1.77;;
12689;SDS011;6409;56.294;14.480;2023-04-03T07:07:34;3.90;;;1.70;;
12689;SDS011;6409;56.294;14.480;2023-04-03T07:10:01;2.37;;;2.17;;
12689;SDS011;6409;56.294;14.480;2023-04-03T07:12:28;2.20;;;2.10;;
12689;SDS011;6409;56.294;14.480;2023-04-03T07:14:56;2.00;;;1.90;;
12689;SDS011;6409;56.294;14.480;2023-04-03T07:17:23;2.97;;;1.90;;
12689;SDS011;6409;56.294;14.480;2023-04-03T07:19:52;2.13;;;2.03;;
12689;SDS011;6409;56.294;14.480;2023-04-03T07:22:19;2.43;;;2.23;;
12689;SDS011;6409;56.294;14.480;2023-04-03T07:24:46;2.50;;;2.30;;
12689;SDS011;6409;56.294;14.480;2023-04-03T07:27:13;2.60;;;2.50;;
12689;SDS011;6409;56.294;14.480;2023-04-03T07:29:40;2.27;;;2.17;;
12689;SDS011;6409;56.294;14.480;2023-04-03T07:32:09;2.37;;;2.27;;
12689;SDS011;6409;56.294;14.480;2023-04-03T07:34:36;2.50;;;2.40;;
12689;SDS011;6409;56.294;14.480;2023-04-03T07:37:03;2.40;;;2.30;;
12689;SDS011;6409;56.294;14.480;2023-04-03T07:39:31;2.13;;;2.03;;
12689;SDS011;6409;56.294;14.480;2023-04-03T07:41:58;2.60;;;2.50;;
12689;SDS011;6409;56.294;14.480;2023-04-03T07:44:25;2.40;;;2.30;;
12689;SDS011;6409;56.294;14.480;2023-04-03T07:46:52;2.63;;;2.50;;
12689;SDS011;6409;56.294;14.480;2023-04-03T07:49:22;4.20;;;2.50;;
12689;SDS011;6409;56.294;14.480;2023-04-03T07:51:49;2.93;;;2.47;;
12689;SDS011;6409;56.294;14.480;2023-04-03T07:54:18;2.83;;;2.70;;
12689;SDS011;6409;56.294;14.480;2023-04-03T07:56:45;2.90;;;2.80;;
12689;SDS011;6409;56.294;14.480;2023-04-03T07:59:12;2.90;;;2.80;;
12689;SDS011;6409;56.294;14.480;2023-04-03T08:01:39;3.43;;;3.23;;
12689;SDS011;6409;56.294;14.480;2023-04-03T08:04:06;2.70;;;2.60;;
12689;SDS011;6409;56.294;14.480;2023-04-03T08:06:34;2.80;;;2.70;;
12689;SDS011;6409;56.294;14.480;2023-04-03T08:09:02;2.77;;;2.67;;
12689;SDS011;6409;56.294;14.480;2023-04-03T08:11:29;4.43;;;2.90;;
12689;SDS011;6409;56.294;14.480;2023-04-03T08:13:57;2.77;;;2.67;;
12689;SDS011;6409;56.294;14.480;2023-04-03T08:16:24;2.80;;;2.70;;
12689;SDS011;6409;56.294;14.480;2023-04-03T08:18:52;2.70;;;2.60;;
12689;SDS011;6409;56.294;14.480;2023-04-03T08:21:19;2.80;;;2.70;;
12689;SDS011;6409;56.294;14.480;2023-04-03T08:23:49;2.80;;;2.70;;
12689;SDS011;6409;56.294;14.480;2023-04-03T08:26:17;3.23;;;3.03;;
12689;SDS011;6409;56.294;14.480;2023-04-03T08:28:45;2.80;;;2.70;;
12689;SDS011;6409;56.294;14.480;2023-04-03T08:31:13;2.90;;;2.80;;
12689;SDS011;6409;56.294;14.480;2023-04-03T08:33:42;2.90;;;2.70;;
12689;SDS011;6409;56.294;14.480;2023-04-03T08:36:15;2.70;;;2.60;;
12689;SDS011;6409;56.294;14.480;2023-04-03T08:38:44;3.13;;;2.97;;
12689;SDS011;6409;56.294;14.480;2023-04-03T08:41:14;3.93;;;3.20;;
12689;SDS011;6409;56.294;14.480;2023-04-03T08:43:45;3.40;;;3.00;;
12689;SDS011;6409;56.294;14.480;2023-04-03T08:46:21;3.37;;;3.20;;
12689;SDS011;6409;56.294;14.480;2023-04-03T08:48:51;3.10;;;3.00;;
12689;SDS011;6409;56.294;14.480;2023-04-03T08:51:19;3.20;;;3.10;;
12689;SDS011;6409;56.294;14.480;2023-04-03T08:53:49;2.90;;;2.80;;
12689;SDS011;6409;56.294;14.480;2023-04-03T08:56:23;3.20;;;3.03;;
12689;SDS011;6409;56.294;14.480;2023-04-03T08:58:52;3.20;;;3.10;;
12689;SDS011;6409;56.294;14.480;2023-04-03T09:01:23;3.40;;;3.30;;
12689;SDS011;6409;56.294;14.480;2023-04-03T09:03:53;3.33;;;3.23;;
12689;SDS011;6409;56.294;14.480;2023-04-03T09:06:21;3.73;;;3.53;;
12689;SDS011;6409;56.294;14.480;2023-04-03T09:08:51;3.30;;;3.20;;
12689;SDS011;6409;56.294;14.480;2023-04-03T09:11:24;3.60;;;3.50;;
12689;SDS011;6409;56.294;14.480;2023-04-03T09:13:54;3.60;;;3.40;;
12689;SDS011;6409;56.294;14.480;2023-04-03T09:16:28;3.03;;;2.93;;
12689;SDS011;6409;56.294;14.480;2023-04-03T09:19:02;3.40;;;3.30;;
12689;SDS011;6409;56.294;14.480;2023-04-03T09:21:34;3.40;;;3.30;;
12689;SDS011;6409;56.294;14.480;2023-04-03T09:24:06;3.10;;;3.00;;
12689;SDS011;6409;56.294;14.480;2023-04-03T09:26:36;3.10;;;3.00;;
12689;SDS011;6409;56.294;14.480;2023-04-03T09:29:08;3.20;;;3.10;;
12689;SDS011;6409;56.294;14.480;2023-04-03T09:31:42;3.40;;;3.30;;
12689;SDS011;6409;56.294;14.480;2023-04-03T09:34:20;3.20;;;3.10;;
12689;SDS011;6409;56.294;14.480;2023-04-03T09:36:50;3.30;;;3.20;;
12689;SDS011;6409;56.294;14.480;2023-04-03T09:39:19;3.30;;;3.20;;
12689;SDS011;6409;56.294;14.480;2023-04-03T09:41:58;3.27;;;3.17;;
12689;SDS011;6409;56.294;14.480;2023-04-03T09:44:28;3.10;;;3.00;;
12689;SDS011;6409;56.294;14.480;2023-04-03T09:46:56;3.03;;;2.93;;
12689;SDS011;6409;56.294;14.480;2023-04-03T09:49:24;3.33;;;3.03;;
12689;SDS011;6409;56.294;14.480;2023-04-03T09:51:51;3.40;;;3.10;;
12689;SDS011;6409;56.294;14.480;2023-04-03T09:54:32;3.00;;;2.90;;
12689;SDS011;6409;56.294;14.480;2023-04-03T09:57:06;3.27;;;3.13;;
12689;SDS011;6409;56.294;14.480;2023-04-03T09:59:35;3.40;;;3.30;;
12689;SDS011;6409;56.294;14.480;2023-04-03T10:02:04;3.20;;;3.10;;
12689;SDS011;6409;56.294;14.480;2023-04-03T10:04:48;3.40;;;3.20;;
12689;SDS011;6409;56.294;14.480;2023-04-03T10:07:32;3.20;;;3.00;;
12689;SDS011;6409;56.294;14.480;2023-04-03T10:10:02;3.10;;;3.00;;
12689;SDS011;6409;56.294;14.480;2023-04-03T10:13:03;3.03;;;2.93;;
12689;SDS011;6409;56.294;14.480;2023-04-03T10:15:31;3.00;;;2.90;;
12689;SDS011;6409;56.294;14.480;2023-04-03T10:18:04;2.90;;;2.80;;
12689;SDS011;6409;56.294;14.480;2023-04-03T10:20:34;2.90;;;2.80;;
12689;SDS011;6409;56.294;14.480;2023-04-03T10:23:12;2.93;;;2.83;;
12689;SDS011;6409;56.294;14.480;2023-04-03T10:25:43;3.20;;;3.10;;
12689;SDS011;6409;56.294;14.480;2023-04-03T10:28:16;3.30;;;3.20;;
12689;SDS011;6409;56.294;14.480;2023-04-03T10:30:49;3.17;;;3.07;;
12689;SDS011;6409;56.294;14.480;2023-04-03T10:33:25;3.10;;;3.00;;
12689;SDS011;6409;56.294;14.480;2023-04-03T10:36:00;3.10;;;3.00;;
12689;SDS011;6409;56.294;14.480;2023-04-03T10:38:37;3.20;;;3.10;;
12689;SDS011;6409;56.294;14.480;2023-04-03T10:41:11;2.97;;;2.87;;
12689;SDS011;6409;56.294;14.480;2023-04-03T10:43:43;3.20;;;3.10;;
12689;SDS011;6409;56.294;14.480;2023-04-03T10:46:15;3.20;;;3.10;;
12689;SDS011;6409;56.294;14.480;2023-04-03T10:48:49;3.57;;;3.37;;
12689;SDS011;6409;56.294;14.480;2023-04-03T10:51:24;3.10;;;3.00;;
12689;SDS011;6409;56.294;14.480;2023-04-03T10:53:55;3.30;;;3.10;;
12689;SDS011;6409;56.294;14.480;2023-04-03T10:56:29;2.80;;;2.70;;
12689;SDS011;6409;56.294;14.480;2023-04-03T10:59:01;3.10;;;3.00;;
12689;SDS011;6409;56.294;14.480;2023-04-03T11:01:34;2.77;;;2.63;;
12689;SDS011;6409;56.294;14.480;2023-04-03T11:04:03;3.07;;;2.90;;
12689;SDS011;6409;56.294;14.480;2023-04-03T11:06:32;3.03;;;2.67;;
12689;SDS011;6409;56.294;14.480;2023-04-03T11:09:05;2.60;;;2.50;;
12689;SDS011;6409;56.294;14.480;2023-04-03T11:11:37;2.87;;;2.77;;
12689;SDS011;6409;56.294;14.480;2023-04-03T11:14:09;3.17;;;2.90;;
12689;SDS011;6409;56.294;14.480;2023-04-03T11:16:41;2.87;;;2.70;;
12689;SDS011;6409;56.294;14.480;2023-04-03T11:19:11;2.60;;;2.50;;
12689;SDS011;6409;56.294;14.480;2023-04-03T11:21:47;2.70;;;2.53;;
12689;SDS011;6409;56.294;14.480;2023-04-03T11:24:20;3.10;;;2.70;;
12689;SDS011;6409;56.294;14.480;2023-04-03T11:26:50;2.40;;;2.30;;
12689;SDS011;6409;56.294;14.480;2023-04-03T11:29:21;2.37;;;2.27;;
12689;SDS011;6409;56.294;14.480;2023-04-03T11:31:56;2.40;;;2.30;;
12689;SDS011;6409;56.294;14.480;2023-04-03T11:34:34;2.23;;;2.20;;
12689;SDS011;6409;56.294;14.480;2023-04-03T11:37:05;2.30;;;2.20;;
12689;SDS011;6409;56.294;14.480;2023-04-03T11:39:37;5.23;;;2.37;;
12689;SDS011;6409;56.294;14.480;2023-04-03T11:42:15;2.30;;;2.20;;
12689;SDS011;6409;56.294;14.480;2023-04-03T11:44:48;2.30;;;2.20;;
12689;SDS011;6409;56.294;14.480;2023-04-03T11:50:14;2.33;;;2.23;;
12689;SDS011;6409;56.294;14.480;2023-04-03T11:53:02;2.10;;;2.10;;
12689;SDS011;6409;56.294;14.480;2023-04-03T11:55:51;2.30;;;2.20;;
12689;SDS011;6409;56.294;14.480;2023-04-03T11:58:29;2.47;;;2.37;;
12689;SDS011;6409;56.294;14.480;2023-04-03T12:01:00;2.60;;;2.20;;
12689;SDS011;6409;56.294;14.480;2023-04-03T12:06:49;2.30;;;2.20;;
12689;SDS011;6409;56.294;14.480;2023-04-03T12:09:28;2.10;;;2.10;;
12689;SDS011;6409;56.294;14.480;2023-04-03T12:14:48;2.20;;;2.10;;
12689;SDS011;6409;56.294;14.480;2023-04-03T12:17:20;2.27;;;2.17;;
12689;SDS011;6409;56.294;14.480;2023-04-03T12:19:49;2.13;;;2.13;;
12689;SDS011;6409;56.294;14.480;2023-04-03T12:22:17;2.00;;;2.00;;
12689;SDS011;6409;56.294;14.480;2023-04-03T12:24:46;2.40;;;2.30;;
12689;SDS011;6409;56.294;14.480;2023-04-03T12:27:33;2.10;;;2.10;;
12689;SDS011;6409;56.294;14.480;2023-04-03T12:30:03;2.30;;;2.20;;
12689;SDS011;6409;56.294;14.480;2023-04-03T12:35:31;2.40;;;2.30;;
12689;SDS011;6409;56.294;14.480;2023-04-03T12:38:20;2.40;;;2.30;;
12689;SDS011;6409;56.294;14.480;2023-04-03T12:41:19;2.30;;;2.20;;
12689;SDS011;6409;56.294;14.480;2023-04-03T12:44:02;2.20;;;2.10;;
12689;SDS011;6409;56.294;14.480;2023-04-03T12:46:55;2.57;;;2.47;;
12689;SDS011;6409;56.294;14.480;2023-04-03T12:49:33;2.33;;;2.10;;
12689;SDS011;6409;56.294;14.480;2023-04-03T12:52:02;2.20;;;2.20;;
12689;SDS011;6409;56.294;14.480;2023-04-03T12:54:32;2.17;;;2.17;;
12689;SDS011;6409;56.294;14.480;2023-04-03T12:57:11;2.73;;;2.20;;
12689;SDS011;6409;56.294;14.480;2023-04-03T12:59:38;2.03;;;2.03;;
12689;SDS011;6409;56.294;14.480;2023-04-03T13:02:10;2.33;;;2.23;;
12689;SDS011;6409;56.294;14.480;2023-04-03T13:04:53;2.30;;;2.20;;
12689;SDS011;6409;56.294;14.480;2023-04-03T13:07:23;2.30;;;2.20;;
12689;SDS011;6409;56.294;14.480;2023-04-03T13:10:01;2.37;;;2.27;;
12689;SDS011;6409;56.294;14.480;2023-04-03T13:12:30;2.20;;;2.20;;
12689;SDS011;6409;56.294;14.480;2023-04-03T13:14:59;2.60;;;2.40;;
12689;SDS011;6409;56.294;14.480;2023-04-03T13:17:29;2.10;;;2.10;;
12689;SDS011;6409;56.294;14.480;2023-04-03T13:20:10;2.37;;;2.27;;
12689;SDS011;6409;56.294;14.480;2023-04-03T13:22:39;2.17;;;2.07;;
12689;SDS011;6409;56.294;14.480;2023-04-03T13:25:13;2.20;;;2.13;;
12689;SDS011;6409;56.294;14.480;2023-04-03T13:27:41;2.20;;;2.10;;
12689;SDS011;6409;56.294;14.480;2023-04-03T13:30:17;2.20;;;2.10;;
12689;SDS011;6409;56.294;14.480;2023-04-03T13:32:47;2.30;;;2.20;;
12689;SDS011;6409;56.294;14.480;2023-04-03T13:35:30;2.13;;;2.03;;
12689;SDS011;6409;56.294;14.480;2023-04-03T13:38:01;1.90;;;1.90;;
12689;SDS011;6409;56.294;14.480;2023-04-03T13:40:31;2.10;;;2.00;;
12689;SDS011;6409;56.294;14.480;2023-04-03T13:42:58;2.07;;;2.00;;
12689;SDS011;6409;56.294;14.480;2023-04-03T13:45:27;1.93;;;1.93;;
12689;SDS011;6409;56.294;14.480;2023-04-03T13:48:07;2.17;;;2.07;;
12689;SDS011;6409;56.294;14.480;2023-04-03T13:50:51;2.20;;;2.10;;
12689;SDS011;6409;56.294;14.480;2023-04-03T13:53:20;3.40;;;2.00;;
12689;SDS011;6409;56.294;14.480;2023-04-03T13:55:55;2.10;;;2.00;;
12689;SDS011;6409;56.294;14.480;2023-04-03T13:58:25;2.10;;;2.00;;
12689;SDS011;6409;56.294;14.480;2023-04-03T14:00:54;2.00;;;2.00;;
12689;SDS011;6409;56.294;14.480;2023-04-03T14:03:23;2.70;;;2.00;;
12689;SDS011;6409;56.294;14.480;2023-04-03T14:05:53;2.43;;;2.33;;
12689;SDS011;6409;56.294;14.480;2023-04-03T14:08:21;2.17;;;2.07;;
12689;SDS011;6409;56.294;14.480;2023-04-03T14:10:48;1.97;;;1.87;;
12689;SDS011;6409;56.294;14.480;2023-04-03T14:13:16;2.10;;;2.00;;
12689;SDS011;6409;56.294;14.480;2023-04-03T14:15:45;2.00;;;1.90;;
12689;SDS011;6409;56.294;14.480;2023-04-03T14:18:14;2.40;;;2.20;;
12689;SDS011;6409;56.294;14.480;2023-04-03T14:20:43;2.70;;;2.10;;
12689;SDS011;6409;56.294;14.480;2023-04-03T14:23:11;2.03;;;2.00;;
12689;SDS011;6409;56.294;14.480;2023-04-03T14:25:38;3.27;;;2.00;;
12689;SDS011;6409;56.294;14.480;2023-04-03T14:28:12;1.90;;;1.90;;
12689;SDS011;6409;56.294;14.480;2023-04-03T14:30:41;2.00;;;1.90;;
12689;SDS011;6409;56.294;14.480;2023-04-03T14:33:10;2.20;;;2.10;;
12689;SDS011;6409;56.294;14.480;2023-04-03T14:35:39;2.00;;;2.00;;
12689;SDS011;6409;56.294;14.480;2023-04-03T14:38:12;1.93;;;1.90;;
12689;SDS011;6409;56.294;14.480;2023-04-03T14:40:48;2.10;;;2.00;;
12689;SDS011;6409;56.294;14.480;2023-04-03T14:43:15;2.13;;;2.03;;
12689;SDS011;6409;56.294;14.480;2023-04-03T14:45:42;1.90;;;1.90;;
12689;SDS011;6409;56.294;14.480;2023-04-03T14:48:10;2.10;;;2.00;;
12689;SDS011;6409;56.294;14.480;2023-04-03T14:50:43;1.90;;;1.90;;
12689;SDS011;6409;56.294;14.480;2023-04-03T14:53:12;2.33;;;2.13;;
12689;SDS011;6409;56.294;14.480;2023-04-03T14:55:41;1.97;;;1.93;;
12689;SDS011;6409;56.294;14.480;2023-04-03T14:58:13;2.10;;;2.00;;
12689;SDS011;6409;56.294;14.480;2023-04-03T15:00:41;2.63;;;2.07;;
12689;SDS011;6409;56.294;14.480;2023-04-03T15:03:11;2.03;;;2.03;;
12689;SDS011;6409;56.294;14.480;2023-04-03T15:05:40;1.80;;;1.80;;
12689;SDS011;6409;56.294;14.480;2023-04-03T15:08:08;2.00;;;1.90;;
12689;SDS011;6409;56.294;14.480;2023-04-03T15:10:45;2.10;;;2.00;;
12689;SDS011;6409;56.294;14.480;2023-04-03T15:13:12;2.00;;;1.90;;
12689;SDS011;6409;56.294;14.480;2023-04-03T15:15:39;2.00;;;1.90;;
12689;SDS011;6409;56.294;14.480;2023-04-03T15:18:06;2.07;;;1.97;;
12689;SDS011;6409;56.294;14.480;2023-04-03T15:20:36;2.60;;;2.40;;